createdAt,value
2017-12-11T00:01:23.473Z,3.60
2017-12-11T00:03:50.943Z,4.20
2017-12-11T00:06:18.346Z,3.33
2017-12-11T00:08:45.750Z,3.05
2017-12-11T00:11:13.962Z,3.92
2017-12-11T00:13:41.395Z,3.70
2017-12-11T00:16:16.257Z,4.22
2017-12-11T00:18:43.665Z,3.95
2017-12-11T00:21:11.110Z,4.35
2017-12-11T00:23:38.522Z,4.10
2017-12-11T00:26:06.042Z,4.18
2017-12-11T00:28:33.449Z,4.80
2017-12-11T00:31:00.867Z,4.50
2017-12-11T00:33:28.268Z,4.78
2017-12-11T00:35:55.726Z,4.93
2017-12-11T00:38:23.177Z,5.70
2017-12-11T00:40:50.598Z,5.35
2017-12-11T00:43:18.002Z,5.93
2017-12-11T00:45:46.209Z,5.18
2017-12-11T00:48:13.614Z,5.90
2017-12-11T00:50:41.067Z,5.82
2017-12-11T00:53:08.513Z,5.70
2017-12-11T00:55:35.933Z,6.37
2017-12-11T00:58:03.338Z,6.97
2017-12-11T01:00:30.809Z,5.25
2017-12-11T01:02:58.224Z,6.43
2017-12-11T01:05:25.629Z,7.30
2017-12-11T01:07:53.816Z,7.78
2017-12-11T01:10:21.990Z,8.32
2017-12-11T01:12:50.170Z,9.10
2017-12-11T01:15:17.680Z,7.68
2017-12-11T01:17:45.138Z,9.50
2017-12-11T01:20:12.562Z,9.90
2017-12-11T01:22:40.014Z,10.43
2017-12-11T01:25:08.087Z,10.38
2017-12-11T01:27:35.597Z,10.60
2017-12-11T01:30:03.014Z,11.02
2017-12-11T01:32:31.209Z,10.88
2017-12-11T01:34:58.682Z,11.30
2017-12-11T01:37:26.089Z,10.50
2017-12-11T01:39:53.527Z,11.38
2017-12-11T01:42:20.936Z,11.30
2017-12-11T01:44:48.375Z,11.10
2017-12-11T01:47:16.538Z,11.25
2017-12-11T01:49:44.722Z,10.75
2017-12-11T01:52:12.940Z,11.02
2017-12-11T01:54:40.355Z,11.80
2017-12-11T01:57:07.774Z,12.02
2017-12-11T01:59:35.194Z,12.10
2017-12-11T02:02:02.612Z,10.35
2017-12-11T02:04:30.084Z,10.40
2017-12-11T02:06:57.496Z,10.00
2017-12-11T02:09:24.914Z,9.65
2017-12-11T02:11:52.488Z,12.00
2017-12-11T02:14:19.903Z,12.52
2017-12-11T02:16:47.338Z,12.30
2017-12-11T02:19:14.790Z,11.98
2017-12-11T02:21:42.262Z,12.63
2017-12-11T02:24:09.756Z,11.95
2017-12-11T02:26:37.216Z,12.70
2017-12-11T02:29:05.397Z,13.98
2017-12-11T02:31:32.798Z,13.50
2017-12-11T02:34:00.220Z,12.82
2017-12-11T02:36:27.700Z,14.60
2017-12-11T02:38:55.875Z,15.45
2017-12-11T02:41:24.045Z,14.98
2017-12-11T02:43:52.226Z,13.85
2017-12-11T02:46:19.646Z,15.00
2017-12-11T02:48:47.053Z,14.30
2017-12-11T02:51:14.481Z,14.02
2017-12-11T02:53:41.892Z,15.15
2017-12-11T02:56:09.412Z,15.70
2017-12-11T02:58:37.589Z,16.30
2017-12-11T03:01:05.833Z,14.57
2017-12-11T03:03:33.238Z,15.57
2017-12-11T03:06:00.650Z,13.57
2017-12-11T03:08:28.054Z,15.50
2017-12-11T03:10:56.243Z,17.85
2017-12-11T03:13:23.641Z,14.87
2017-12-11T03:15:51.075Z,16.55
2017-12-11T03:18:18.478Z,15.68
2017-12-11T03:20:45.903Z,15.07
2017-12-11T03:23:13.315Z,16.08
2017-12-11T03:25:40.796Z,15.00
2017-12-11T03:28:08.194Z,15.90
2017-12-11T03:30:35.730Z,16.12
2017-12-11T03:33:03.139Z,14.87
2017-12-11T03:35:30.551Z,16.77
2017-12-11T03:37:57.983Z,15.70
2017-12-11T03:40:25.494Z,15.50
2017-12-11T03:42:52.967Z,14.95
2017-12-11T03:45:20.456Z,16.02
2017-12-11T03:47:47.909Z,15.50
2017-12-11T03:50:15.369Z,17.50
2017-12-11T03:52:42.774Z,16.08
2017-12-11T03:55:10.203Z,13.77
2017-12-11T03:57:37.640Z,17.58
2017-12-11T04:00:05.174Z,16.20
2017-12-11T04:02:32.569Z,15.85
2017-12-11T04:05:00.798Z,15.50
2017-12-11T04:07:28.955Z,16.35
2017-12-11T04:09:57.121Z,14.40
2017-12-11T04:12:24.632Z,13.05
2017-12-11T04:14:52.120Z,14.25
2017-12-11T04:17:19.595Z,14.82
2017-12-11T04:19:46.990Z,13.93
2017-12-11T04:22:14.410Z,15.27
2017-12-11T04:24:41.829Z,14.18
2017-12-11T04:27:09.274Z,13.75
2017-12-11T04:29:36.678Z,12.30
2017-12-11T04:32:04.086Z,13.85
2017-12-11T04:34:31.508Z,13.23
2017-12-11T04:36:58.910Z,11.52
2017-12-11T04:39:26.392Z,12.23
2017-12-11T04:41:53.815Z,11.23
2017-12-11T04:44:21.328Z,12.20
2017-12-11T04:46:49.487Z,12.43
2017-12-11T04:49:17.666Z,12.95
2017-12-11T04:51:45.858Z,14.30
2017-12-11T04:54:13.251Z,14.50
2017-12-11T04:56:40.670Z,14.30
2017-12-11T04:59:08.082Z,14.48
2017-12-11T05:01:35.497Z,14.05
2017-12-11T05:04:02.918Z,14.38
2017-12-11T05:06:30.395Z,16.00
2017-12-11T05:08:57.853Z,15.25
2017-12-11T05:11:25.274Z,15.25
2017-12-11T05:13:52.689Z,14.85
2017-12-11T05:16:20.105Z,14.80
2017-12-11T05:18:47.525Z,14.45
2017-12-11T05:21:14.985Z,15.15
2017-12-11T05:23:42.405Z,15.48
2017-12-11T05:26:09.830Z,15.25
2017-12-11T05:28:37.242Z,15.50
2017-12-11T05:31:04.658Z,16.15
2017-12-11T05:33:32.139Z,14.90
2017-12-11T05:35:59.559Z,14.80
2017-12-11T05:38:26.986Z,16.08
2017-12-11T05:40:54.403Z,14.77
2017-12-11T05:43:21.822Z,14.80
2017-12-11T05:45:49.237Z,15.32
2017-12-11T05:48:16.651Z,14.60
2017-12-11T05:50:44.077Z,14.32
2017-12-11T05:53:11.506Z,14.40
2017-12-11T05:55:38.990Z,15.35
2017-12-11T05:58:06.418Z,15.32
2017-12-11T06:00:33.833Z,13.70
2017-12-11T06:03:01.267Z,15.45
2017-12-11T06:05:28.693Z,15.63
2017-12-11T06:07:56.865Z,16.83
2017-12-11T06:10:24.275Z,16.05
2017-12-11T06:12:51.744Z,16.20
2017-12-11T06:15:19.189Z,15.93
2017-12-11T06:17:47.346Z,15.63
2017-12-11T06:20:14.788Z,15.15
2017-12-11T06:22:42.189Z,15.75
2017-12-11T06:25:09.602Z,16.27
2017-12-11T06:27:37.191Z,16.42
2017-12-11T06:30:04.643Z,15.25
2017-12-11T06:32:32.051Z,17.33
2017-12-11T06:34:59.594Z,17.00
2017-12-11T06:37:28.546Z,17.70
2017-12-11T06:39:56.058Z,17.58
2017-12-11T06:42:23.470Z,17.42
2017-12-11T06:44:50.894Z,18.37
2017-12-11T06:47:18.297Z,17.33
2017-12-11T06:49:45.705Z,17.95
2017-12-11T06:52:13.939Z,19.77
2017-12-11T06:54:41.383Z,20.00
2017-12-11T06:57:09.621Z,18.45
2017-12-11T06:59:37.015Z,19.40
2017-12-11T07:02:05.227Z,19.92
2017-12-11T07:04:32.638Z,20.25
2017-12-11T07:07:00.060Z,18.30
2017-12-11T07:09:27.513Z,19.70
2017-12-11T07:11:54.934Z,20.35
2017-12-11T07:14:22.334Z,20.58
2017-12-11T07:16:50.525Z,20.60
2017-12-11T07:19:18.759Z,21.33
2017-12-11T07:21:46.210Z,20.48
2017-12-11T07:24:13.674Z,21.55
2017-12-11T07:26:41.161Z,19.30
2017-12-11T07:29:08.585Z,21.55
2017-12-11T07:31:36.809Z,20.70
2017-12-11T07:34:04.201Z,21.52
2017-12-11T07:36:31.627Z,22.50
2017-12-11T07:38:59.817Z,21.65
2017-12-11T07:41:27.236Z,22.85
2017-12-11T07:43:54.658Z,22.50
2017-12-11T07:46:22.078Z,22.13
2017-12-11T07:48:49.490Z,22.23
2017-12-11T07:51:16.966Z,21.40
2017-12-11T07:53:45.150Z,21.12
2017-12-11T07:56:12.590Z,21.40
2017-12-11T07:58:39.994Z,19.48
2017-12-11T08:01:07.418Z,22.08
2017-12-11T08:03:34.830Z,21.40
2017-12-11T08:06:02.238Z,20.98
2017-12-11T08:08:29.759Z,22.80
2017-12-11T08:10:57.925Z,18.58
2017-12-11T08:13:26.091Z,21.52
2017-12-11T08:15:53.506Z,20.45
2017-12-11T08:18:20.921Z,20.95
2017-12-11T08:20:48.429Z,19.10
2017-12-11T08:23:15.848Z,20.20
2017-12-11T08:25:43.278Z,21.25
2017-12-11T08:28:10.703Z,21.95
2017-12-11T08:30:38.122Z,19.73
2017-12-11T08:33:05.546Z,20.45
2017-12-11T08:35:33.741Z,20.55
2017-12-11T08:38:01.913Z,20.45
2017-12-11T08:40:30.122Z,20.12
2017-12-11T08:42:58.282Z,20.98
2017-12-11T08:45:25.709Z,22.83
2017-12-11T08:47:53.175Z,21.65
2017-12-11T08:50:20.628Z,20.48
2017-12-11T08:52:48.039Z,20.27
2017-12-11T08:55:15.454Z,20.10
2017-12-11T08:57:42.854Z,20.90
2017-12-11T09:00:10.304Z,18.95
2017-12-11T09:02:37.750Z,18.25
2017-12-11T09:05:05.182Z,18.52
2017-12-11T09:07:32.590Z,18.02
2017-12-11T09:10:00.011Z,18.00
2017-12-11T09:12:27.430Z,18.80
2017-12-11T09:14:54.886Z,19.20
2017-12-11T09:17:22.272Z,17.95
2017-12-11T09:19:49.690Z,19.02
2017-12-11T09:22:17.107Z,19.30
2017-12-11T09:24:44.533Z,19.67
2017-12-11T09:27:11.934Z,18.90
2017-12-11T09:29:39.422Z,19.40
2017-12-11T09:32:06.832Z,19.05
2017-12-11T09:34:34.450Z,18.65
2017-12-11T09:37:02.609Z,19.23
2017-12-11T09:39:30.782Z,17.75
2017-12-11T09:41:58.216Z,19.15
2017-12-11T09:44:25.642Z,19.80
2017-12-11T09:46:53.062Z,21.12
2017-12-11T09:49:20.493Z,20.27
2017-12-11T09:51:47.912Z,20.95
2017-12-11T09:54:15.321Z,21.23
2017-12-11T09:56:42.753Z,20.45
2017-12-11T09:59:10.926Z,20.62
2017-12-11T10:01:38.471Z,22.83
2017-12-11T10:04:05.924Z,21.02
2017-12-11T10:06:33.386Z,19.33
2017-12-11T10:09:00.813Z,20.20
2017-12-11T10:11:28.263Z,20.62
2017-12-11T10:13:55.670Z,20.60
2017-12-11T10:16:23.883Z,18.40
2017-12-11T10:18:52.046Z,18.80
2017-12-11T10:21:20.249Z,19.60
2017-12-11T10:23:48.416Z,18.92
2017-12-11T10:26:16.601Z,16.05
2017-12-11T10:28:44.795Z,18.85
2017-12-11T10:31:13.021Z,17.42
2017-12-11T10:33:41.254Z,18.30
2017-12-11T10:36:09.442Z,16.92
2017-12-11T10:38:36.850Z,18.05
2017-12-11T10:41:04.280Z,18.77
2017-12-11T10:43:32.495Z,17.67
2017-12-11T10:45:59.913Z,18.52
2017-12-11T10:48:27.313Z,17.75
2017-12-11T10:50:54.725Z,18.55
2017-12-11T10:53:22.141Z,18.62
2017-12-11T10:55:50.323Z,19.10
2017-12-11T10:58:18.509Z,17.95
2017-12-11T11:00:46.724Z,16.90
2017-12-11T11:03:14.909Z,18.52
2017-12-11T11:05:43.073Z,18.83
2017-12-11T11:08:11.277Z,17.10
2017-12-11T11:10:38.706Z,18.77
2017-12-11T11:13:06.160Z,18.90
2017-12-11T11:15:33.578Z,17.95
2017-12-11T11:18:00.998Z,18.37
2017-12-11T11:20:28.411Z,18.20
2017-12-11T11:22:55.892Z,16.33
2017-12-11T11:25:23.302Z,18.15
2017-12-11T11:27:50.718Z,18.70
2017-12-11T11:30:18.137Z,14.90
2017-12-11T11:32:45.562Z,18.37
2017-12-11T11:35:13.003Z,15.07
2017-12-11T11:37:41.170Z,18.85
2017-12-11T11:40:08.600Z,18.70
2017-12-11T11:42:36.006Z,18.40
2017-12-11T11:45:03.433Z,19.10
2017-12-11T11:47:30.821Z,18.87
2017-12-11T11:49:58.230Z,18.87
2017-12-11T11:52:26.410Z,19.55
2017-12-11T11:54:54.599Z,18.67
2017-12-11T11:57:22.772Z,19.17
2017-12-11T11:59:51.725Z,20.10
2017-12-11T12:02:19.179Z,20.77
2017-12-11T12:04:46.648Z,18.80
2017-12-11T12:07:14.116Z,17.35
2017-12-11T12:09:41.566Z,17.50
2017-12-11T12:12:09.767Z,19.55
2017-12-11T12:14:37.201Z,17.17
2017-12-11T12:17:04.610Z,15.23
2017-12-11T12:19:32.118Z,18.10
2017-12-11T12:21:59.551Z,16.92
2017-12-11T12:24:27.706Z,18.20
2017-12-11T12:26:55.914Z,16.58
2017-12-11T12:29:23.494Z,17.05
2017-12-11T12:31:51.652Z,14.60
2017-12-11T12:34:19.822Z,19.10
2017-12-11T12:36:47.237Z,15.40
2017-12-11T12:39:14.645Z,20.05
2017-12-11T12:41:42.174Z,19.85
2017-12-11T12:44:10.383Z,20.48
2017-12-11T12:46:37.826Z,19.95
2017-12-11T12:49:05.397Z,18.33
2017-12-11T12:51:33.556Z,20.08
2017-12-11T12:54:01.757Z,21.85
2017-12-11T12:56:29.210Z,19.80
2017-12-11T12:58:57.400Z,13.62
2017-12-11T13:01:25.630Z,15.43
2017-12-11T13:03:53.033Z,15.35
2017-12-11T13:06:20.446Z,12.45
2017-12-11T13:08:47.862Z,21.20
2017-12-11T13:11:15.278Z,20.33
2017-12-11T13:13:42.703Z,19.15
2017-12-11T13:16:10.110Z,20.75
2017-12-11T13:18:37.578Z,20.20
2017-12-11T13:21:04.999Z,20.50
2017-12-11T13:23:32.414Z,21.33
2017-12-11T13:25:59.825Z,21.55
2017-12-11T13:28:27.241Z,19.98
2017-12-11T13:30:54.721Z,20.08
2017-12-11T13:33:22.130Z,19.83
2017-12-11T13:35:49.540Z,18.48
2017-12-11T13:38:17.734Z,12.20
2017-12-11T13:40:45.147Z,18.60
2017-12-11T13:43:12.580Z,21.30
2017-12-11T13:45:40.068Z,20.75
2017-12-11T13:48:07.475Z,15.38
2017-12-11T13:50:34.985Z,20.48
2017-12-11T13:53:02.414Z,17.55
2017-12-11T13:55:29.818Z,16.85
2017-12-11T13:57:57.227Z,13.52
2017-12-11T14:00:24.650Z,11.68
2017-12-11T14:02:52.090Z,15.93
2017-12-11T14:05:19.538Z,18.62
2017-12-11T14:07:46.944Z,17.75
2017-12-11T14:10:15.129Z,18.52
2017-12-11T14:12:43.327Z,18.02
2017-12-11T14:15:11.513Z,17.83
2017-12-11T14:17:38.991Z,8.07
2017-12-11T14:20:07.178Z,18.33
2017-12-11T14:22:35.355Z,16.83
2017-12-11T14:25:02.787Z,18.60
2017-12-11T14:27:30.258Z,20.60
2017-12-11T14:29:57.688Z,18.05
2017-12-11T14:32:25.102Z,16.65
2017-12-11T14:34:53.293Z,14.43
2017-12-11T14:37:20.790Z,14.75
2017-12-11T14:39:48.254Z,17.73
2017-12-11T14:42:15.743Z,16.40
2017-12-11T14:44:43.151Z,18.25
2017-12-11T14:47:10.566Z,16.73
2017-12-11T14:49:37.985Z,19.05
2017-12-11T14:52:05.401Z,17.30
2017-12-11T14:54:32.810Z,17.45
2017-12-11T14:57:00.231Z,19.42
2017-12-11T14:59:27.642Z,18.75
2017-12-11T15:01:55.071Z,18.10
2017-12-11T15:04:22.486Z,12.00
2017-12-11T15:06:49.898Z,17.95
2017-12-11T15:09:17.369Z,18.85
2017-12-11T15:11:44.777Z,19.60
2017-12-11T15:14:12.219Z,18.45
2017-12-11T15:16:39.688Z,18.00
2017-12-11T15:19:07.074Z,13.32
2017-12-11T15:21:34.486Z,19.52
2017-12-11T15:24:02.663Z,20.23
2017-12-11T15:26:30.851Z,17.12
2017-12-11T15:28:59.025Z,13.45
2017-12-11T15:31:26.456Z,17.48
2017-12-11T15:33:53.922Z,20.27
2017-12-11T15:36:21.373Z,16.30
2017-12-11T15:38:48.839Z,14.65
2017-12-11T15:41:16.283Z,20.58
2017-12-11T15:43:43.692Z,16.75
2017-12-11T15:46:11.144Z,17.67
2017-12-11T15:48:38.568Z,20.23
2017-12-11T15:51:06.082Z,12.40
2017-12-11T15:53:33.496Z,13.70
2017-12-11T15:56:00.930Z,18.12
2017-12-11T15:58:28.334Z,18.37
2017-12-11T16:00:55.743Z,18.37
2017-12-11T16:03:23.934Z,13.55
2017-12-11T16:05:52.114Z,18.25
2017-12-11T16:08:20.311Z,18.37
2017-12-11T16:10:47.801Z,17.33
2017-12-11T16:13:15.210Z,13.55
2017-12-11T16:15:42.662Z,18.60
2017-12-11T16:18:10.093Z,15.32
2017-12-11T16:20:37.494Z,16.35
2017-12-11T16:23:04.927Z,20.15
2017-12-11T16:25:32.369Z,13.18
2017-12-11T16:27:59.762Z,15.63
2017-12-11T16:30:27.173Z,25.30
2017-12-11T16:32:54.577Z,24.15
2017-12-11T16:35:22.802Z,24.10
2017-12-11T16:37:50.228Z,25.33
2017-12-11T16:40:18.434Z,26.70
2017-12-11T16:42:45.900Z,26.12
2017-12-11T16:45:13.411Z,19.35
2017-12-11T16:47:40.836Z,20.95
2017-12-11T16:50:08.273Z,18.48
2017-12-11T16:52:35.737Z,15.07
2017-12-11T16:55:03.086Z,25.10
2017-12-11T16:57:30.506Z,20.42
2017-12-11T16:59:57.913Z,21.92
2017-12-11T17:02:25.325Z,21.60
2017-12-11T17:04:52.747Z,20.52
2017-12-11T17:07:20.171Z,26.75
2017-12-11T17:09:48.341Z,23.98
2017-12-11T17:12:16.530Z,24.33
2017-12-11T17:14:44.705Z,24.85
2017-12-11T17:17:12.136Z,20.67
2017-12-11T17:19:39.576Z,21.92
2017-12-11T17:22:06.999Z,24.10
2017-12-11T17:24:34.418Z,25.67
2017-12-11T17:27:01.842Z,25.98
2017-12-11T17:29:30.055Z,28.85
2017-12-11T17:31:57.469Z,25.15
2017-12-11T17:34:24.909Z,27.40
2017-12-11T17:36:52.339Z,27.00
2017-12-11T17:39:19.766Z,30.77
2017-12-11T17:41:47.171Z,20.40
2017-12-11T17:44:14.581Z,27.92
2017-12-11T17:46:42.002Z,22.40
2017-12-11T17:49:09.501Z,21.12
2017-12-11T17:51:37.714Z,18.17
2017-12-11T17:54:05.167Z,27.33
2017-12-11T17:56:32.579Z,30.48
2017-12-11T17:59:00.005Z,24.67
2017-12-11T18:01:27.475Z,26.67
2017-12-11T18:03:54.942Z,24.27
2017-12-11T18:06:22.301Z,26.80
2017-12-11T18:08:49.784Z,31.00
2017-12-11T18:11:17.216Z,29.37
2017-12-11T18:13:44.636Z,29.92
2017-12-11T18:16:12.045Z,30.77
2017-12-11T18:18:39.504Z,25.75
2017-12-11T18:21:06.890Z,32.17
2017-12-11T18:23:35.084Z,29.77
2017-12-11T18:26:03.295Z,30.23
2017-12-11T18:28:31.481Z,28.70
2017-12-11T18:30:59.664Z,28.00
2017-12-11T18:33:27.059Z,29.77
2017-12-11T18:35:54.502Z,30.83
2017-12-11T18:38:21.914Z,31.55
2017-12-11T18:40:49.375Z,30.85
2017-12-11T18:43:16.815Z,29.37
2017-12-11T18:45:44.285Z,29.73
2017-12-11T18:48:11.686Z,31.05
2017-12-11T18:50:39.117Z,30.12
2017-12-11T18:53:06.681Z,29.90
2017-12-11T18:55:34.844Z,26.23
2017-12-11T18:58:03.074Z,30.42
2017-12-11T19:00:30.497Z,29.83
2017-12-11T19:02:57.920Z,28.77
2017-12-11T19:05:25.339Z,30.67
2017-12-11T19:07:52.757Z,32.65
2017-12-11T19:10:20.223Z,30.55
2017-12-11T19:12:47.641Z,29.20
2017-12-11T19:15:15.050Z,31.87
2017-12-11T19:17:43.215Z,26.02
2017-12-11T19:20:10.636Z,29.67
2017-12-11T19:22:38.193Z,31.30
2017-12-11T19:25:06.771Z,29.60
2017-12-11T19:27:34.945Z,22.55
2017-12-11T19:30:02.344Z,26.02
2017-12-11T19:32:29.774Z,30.95
2017-12-11T19:34:57.195Z,29.98
2017-12-11T19:37:24.598Z,31.17
2017-12-11T19:39:52.014Z,30.00
2017-12-11T19:42:19.425Z,30.45
2017-12-11T19:44:46.847Z,31.87
2017-12-11T19:47:14.328Z,31.62
2017-12-11T19:49:41.744Z,28.38
2017-12-11T19:52:09.192Z,30.98
2017-12-11T19:54:36.604Z,30.45
2017-12-11T19:57:04.770Z,29.50
2017-12-11T19:59:32.210Z,31.05
2017-12-11T20:01:59.646Z,29.75
2017-12-11T20:04:27.050Z,28.87
2017-12-11T20:06:54.483Z,32.10
2017-12-11T20:09:21.912Z,32.53
2017-12-11T20:11:49.356Z,28.20
2017-12-11T20:14:16.765Z,27.17
2017-12-11T20:16:44.990Z,29.95
2017-12-11T20:19:12.399Z,27.55
2017-12-11T20:21:39.909Z,28.02
2017-12-11T20:24:08.134Z,31.25
2017-12-11T20:26:35.594Z,30.08
2017-12-11T20:29:03.762Z,29.63
2017-12-11T20:31:31.198Z,26.48
2017-12-11T20:33:58.652Z,31.75
2017-12-11T20:36:26.058Z,31.25
2017-12-11T20:38:53.568Z,28.65
2017-12-11T20:41:21.034Z,27.62
2017-12-11T20:43:48.450Z,41.75
2017-12-11T20:46:15.876Z,39.95
2017-12-11T20:48:43.295Z,60.00
2017-12-11T20:51:10.721Z,43.97
2017-12-11T20:53:38.172Z,53.10
2017-12-11T20:56:05.648Z,40.17
2017-12-11T20:58:33.133Z,44.60
2017-12-11T21:01:00.582Z,42.65
2017-12-11T21:03:28.072Z,37.17
2017-12-11T21:05:55.493Z,38.50
2017-12-11T21:08:23.674Z,31.33
2017-12-11T21:10:51.850Z,33.15
2017-12-11T21:13:19.370Z,32.60
2017-12-11T21:15:46.776Z,31.52
2017-12-11T21:18:14.973Z,29.87
2017-12-11T21:20:42.390Z,30.98
2017-12-11T21:23:10.594Z,30.23
2017-12-11T21:25:38.020Z,27.10
2017-12-11T21:28:05.435Z,25.70
2017-12-11T21:30:32.850Z,22.70
2017-12-11T21:33:00.272Z,26.75
2017-12-11T21:35:27.673Z,26.50
2017-12-11T21:37:55.118Z,23.67
2017-12-11T21:40:22.589Z,22.15
2017-12-11T21:42:50.024Z,22.48
2017-12-11T21:45:18.217Z,21.85
2017-12-11T21:47:46.398Z,18.98
2017-12-11T21:50:14.617Z,18.20
2017-12-11T21:52:42.032Z,16.62
2017-12-11T21:55:10.398Z,15.50
2017-12-11T21:57:37.835Z,16.37
2017-12-11T22:00:05.300Z,11.88
2017-12-11T22:02:32.747Z,13.82
2017-12-11T22:05:00.933Z,10.43
2017-12-11T22:07:29.172Z,9.38
2017-12-11T22:09:56.582Z,7.75
2017-12-11T22:12:24.846Z,5.97
2017-12-11T22:14:52.292Z,4.93
2017-12-11T22:17:19.742Z,6.05
2017-12-11T22:19:47.162Z,5.30
2017-12-11T22:22:14.605Z,4.43
2017-12-11T22:24:42.031Z,4.40
2017-12-11T22:27:09.516Z,4.57
2017-12-11T22:29:37.004Z,4.03
2017-12-11T22:32:04.437Z,4.62
2017-12-11T22:34:32.619Z,4.37
2017-12-11T22:37:00.832Z,4.90
2017-12-11T22:39:28.290Z,4.50
2017-12-11T22:41:55.702Z,4.43
2017-12-11T22:44:23.180Z,4.57
2017-12-11T22:46:50.578Z,3.77
2017-12-11T22:49:18.851Z,5.35
2017-12-11T22:51:46.244Z,3.83
2017-12-11T22:54:13.691Z,4.93
2017-12-11T22:56:41.111Z,4.10
2017-12-11T22:59:08.577Z,3.60
2017-12-11T23:01:36.018Z,4.90
2017-12-11T23:04:04.226Z,4.20
2017-12-11T23:06:31.655Z,3.90
2017-12-11T23:08:59.057Z,3.20
2017-12-11T23:11:26.542Z,3.75
2017-12-11T23:13:54.243Z,3.27
2017-12-11T23:16:21.657Z,3.30
2017-12-11T23:18:49.837Z,2.53
2017-12-11T23:21:17.247Z,3.40
2017-12-11T23:23:44.678Z,2.85
2017-12-11T23:26:12.109Z,2.43
2017-12-11T23:28:39.588Z,2.60
2017-12-11T23:31:07.009Z,2.60
2017-12-11T23:33:35.191Z,2.63
2017-12-11T23:36:02.590Z,2.57
2017-12-11T23:38:30.031Z,2.40
2017-12-11T23:40:57.433Z,2.70
2017-12-11T23:43:25.022Z,3.00
2017-12-11T23:45:52.492Z,2.60
2017-12-11T23:48:20.658Z,2.60
2017-12-11T23:50:48.063Z,2.23
2017-12-11T23:53:15.527Z,2.20
2017-12-11T23:55:42.919Z,2.60
2017-12-11T23:58:10.396Z,1.83
